Time;durP1;ratioP1;P1;durP2;ratioP2;P2;SDS_P1;SDS_P2;PMS_P1;PMS_P2;Temp;Humidity;BMP_temperature;BMP_pressure;BME280_temperature;BME280_humidity;BME280_pressure;Samples;Min_cycle;Max_cycle;Signal;HPM_P1;HPM_P2
2024/02/17 00:00:06;;;;;;;15.90;8.32;;;8.80;99.90;;;;;;4940050;29;20039;-87
2024/02/17 00:02:33;;;;;;;22.85;12.25;;;8.80;99.90;;;;;;4937853;29;20543;-87
2024/02/17 00:05:01;;;;;;;24.63;8.98;;;9.60;99.90;;;;;;4954868;29;20106;-88
2024/02/17 00:07:27;;;;;;;23.40;12.07;;;8.90;99.90;;;;;;4926810;29;20043;-87
2024/02/17 00:09:54;;;;;;;23.92;12.35;;;9.30;99.90;;;;;;4938771;29;20453;-87
2024/02/17 00:12:20;;;;;;;23.77;10.57;;;8.90;99.90;;;;;;4926936;29;20066;-88
2024/02/17 00:14:47;;;;;;;26.15;14.45;;;8.80;99.90;;;;;;4946759;29;20179;-87
2024/02/17 00:17:14;;;;;;;29.77;12.75;;;8.80;99.90;;;;;;4939017;29;20048;-87
2024/02/17 00:19:41;;;;;;;28.38;15.05;;;8.80;99.90;;;;;;4938842;29;20429;-88
2024/02/17 00:22:07;;;;;;;21.08;9.27;;;8.80;99.90;;;;;;4942472;29;20047;-87
2024/02/17 00:24:34;;;;;;;15.75;7.90;;;8.80;99.90;;;;;;4938405;29;20138;-87
2024/02/17 00:27:02;;;;;;;16.05;6.82;;;9.30;99.90;;;;;;4930703;29;20050;-87
2024/02/17 00:29:28;;;;;;;15.00;6.90;;;8.80;99.90;;;;;;4950286;29;20126;-87
2024/02/17 00:31:55;;;;;;;21.02;6.82;;;8.90;99.90;;;;;;4954217;29;20087;-87
2024/02/17 00:34:23;;;;;;;17.02;7.03;;;8.90;99.90;;;;;;4932098;29;20040;-88
2024/02/17 00:36:50;;;;;;;15.02;7.13;;;9.40;99.90;;;;;;4950564;29;20050;-88
2024/02/17 00:39:16;;;;;;;16.38;7.10;;;8.90;99.90;;;;;;4943830;29;20039;-87
2024/02/17 00:41:44;;;;;;;16.95;6.43;;;8.90;99.90;;;;;;4938602;29;20050;-88
2024/02/17 00:44:10;;;;;;;20.77;8.95;;;8.90;99.90;;;;;;4953438;29;20437;-87
2024/02/17 00:46:37;;;;;;;26.58;10.65;;;8.80;99.90;;;;;;4929158;29;20044;-88
2024/02/17 00:49:04;;;;;;;19.30;8.63;;;8.90;99.90;;;;;;4937189;29;20416;-87
2024/02/17 00:51:30;;;;;;;21.23;7.53;;;8.90;99.90;;;;;;4947156;29;20051;-88
2024/02/17 00:53:57;;;;;;;20.40;7.63;;;8.90;99.90;;;;;;4936198;29;20433;-88
2024/02/17 00:56:24;;;;;;;18.65;7.07;;;9.60;99.90;;;;;;4938030;29;20040;-88
2024/02/17 00:58:50;;;;;;;13.63;6.57;;;9.20;99.90;;;;;;4940222;29;20039;-88
2024/02/17 01:01:17;;;;;;;17.23;7.35;;;9.10;99.90;;;;;;4953542;29;20050;-87
2024/02/17 01:03:43;;;;;;;20.20;6.65;;;8.80;99.90;;;;;;4937732;29;20040;-88
2024/02/17 01:06:10;;;;;;;16.20;6.72;;;8.80;99.90;;;;;;4934361;29;20036;-87
2024/02/17 01:08:37;;;;;;;14.77;6.63;;;9.20;99.90;;;;;;4935689;29;20060;-88
2024/02/17 01:11:04;;;;;;;14.52;6.25;;;8.90;99.90;;;;;;4937846;29;20044;-87
2024/02/17 01:13:31;;;;;;;16.23;6.57;;;8.90;99.90;;;;;;4937032;29;20524;-88
2024/02/17 01:15:58;;;;;;;17.10;6.80;;;8.90;99.90;;;;;;4937641;29;20480;-88
2024/02/17 01:18:25;;;;;;;15.38;5.95;;;8.90;99.90;;;;;;4936331;29;20094;-88
2024/02/17 01:20:52;;;;;;;15.75;6.25;;;8.90;99.90;;;;;;4936993;29;20044;-88
2024/02/17 01:23:19;;;;;;;15.75;6.47;;;8.80;99.90;;;;;;4937435;29;20090;-88
2024/02/17 01:25:46;;;;;;;16.08;5.75;;;8.90;99.90;;;;;;4927935;29;20046;-87
2024/02/17 01:28:13;;;;;;;12.38;5.65;;;8.90;99.90;;;;;;4937014;29;20130;-87
2024/02/17 01:30:39;;;;;;;18.52;6.38;;;8.90;99.90;;;;;;4927142;29;20138;-88
2024/02/17 01:33:06;;;;;;;16.92;5.72;;;8.80;99.90;;;;;;4930734;29;20079;-87
2024/02/17 01:35:33;;;;;;;16.52;6.25;;;8.90;99.90;;;;;;4935123;29;20048;-87
2024/02/17 01:38:02;;;;;;;15.50;6.20;;;8.80;99.90;;;;;;4940897;29;20099;-88
2024/02/17 01:40:29;;;;;;;15.55;5.97;;;8.80;99.90;;;;;;4946323;29;20044;-88
2024/02/17 01:42:56;;;;;;;17.58;5.95;;;8.80;99.90;;;;;;4930601;29;20848;-88
2024/02/17 01:45:22;;;;;;;15.95;5.63;;;8.90;99.90;;;;;;4948664;29;20036;-87
2024/02/17 01:47:49;;;;;;;16.45;6.47;;;8.80;99.90;;;;;;4934189;29;20103;-87
2024/02/17 01:50:17;;;;;;;13.38;5.93;;;8.80;99.90;;;;;;4931331;29;20046;-88
2024/02/17 01:52:45;;;;;;;11.90;5.60;;;8.80;99.90;;;;;;4931177;29;20119;-88
2024/02/17 01:55:13;;;;;;;16.92;5.97;;;9.20;99.90;;;;;;4937359;29;20129;-88
2024/02/17 01:57:41;;;;;;;19.58;5.45;;;9.00;99.90;;;;;;4946540;29;20044;-88
2024/02/17 02:00:10;;;;;;;17.58;5.82;;;9.40;99.90;;;;;;4918623;29;20453;-87
2024/02/17 02:02:40;;;;;;;20.92;6.20;;;8.70;99.90;;;;;;4937259;29;20047;-88
2024/02/17 02:05:07;;;;;;;16.52;5.80;;;8.80;99.90;;;;;;4936703;29;20035;-87
2024/02/17 02:07:34;;;;;;;10.55;5.15;;;8.60;99.90;;;;;;4927461;29;20045;-87
2024/02/17 02:10:00;;;;;;;17.98;5.32;;;8.60;99.90;;;;;;4946991;29;20432;-87
2024/02/17 02:12:27;;;;;;;19.02;5.30;;;8.70;99.90;;;;;;4921883;29;20104;-87
2024/02/17 02:15:11;;;;;;;12.40;5.35;;;8.60;99.90;;;;;;4927863;29;20075;-87
2024/02/17 02:17:41;;;;;;;14.93;5.63;;;8.70;99.90;;;;;;4941446;29;20067;-87
2024/02/17 02:20:11;;;;;;;15.45;5.30;;;8.60;99.90;;;;;;4949602;29;20043;-87
2024/02/17 02:22:38;;;;;;;15.63;5.63;;;8.70;99.90;;;;;;4929696;29;20040;-87
2024/02/17 02:25:06;;;;;;;14.57;5.60;;;8.60;99.90;;;;;;4937015;29;20410;-87
2024/02/17 02:27:40;;;;;;;16.20;5.20;;;8.60;99.90;;;;;;4936550;29;20048;-87
2024/02/17 02:30:07;;;;;;;17.02;5.45;;;8.60;99.90;;;;;;4932590;29;20059;-87
2024/02/17 02:32:33;;;;;;;12.35;4.78;;;8.60;99.90;;;;;;4936463;29;20051;-87
2024/02/17 02:35:00;;;;;;;14.27;4.43;;;9.30;99.90;;;;;;4942090;29;20039;-87
2024/02/17 02:37:27;;;;;;;15.52;5.00;;;8.60;99.90;;;;;;4934002;29;20073;-87
2024/02/17 02:39:54;;;;;;;13.35;4.60;;;8.60;99.90;;;;;;4919373;29;20044;-87
2024/02/17 02:42:21;;;;;;;14.10;4.63;;;8.70;99.90;;;;;;4936943;29;20050;-88
2024/02/17 02:44:47;;;;;;;14.65;4.55;;;8.60;99.90;;;;;;4928627;29;20040;-87
2024/02/17 02:47:16;;;;;;;10.70;4.53;;;8.60;99.90;;;;;;4930847;29;20044;-88
2024/02/17 02:49:43;;;;;;;10.52;4.85;;;8.70;99.90;;;;;;4934830;29;20051;-87
2024/02/17 02:52:11;;;;;;;14.13;4.68;;;8.60;99.90;;;;;;4951337;29;20043;-87
2024/02/17 02:54:37;;;;;;;13.10;4.70;;;8.70;99.90;;;;;;4951433;29;20396;-87
2024/02/17 02:57:04;;;;;;;15.38;4.88;;;8.70;99.90;;;;;;4940083;29;20048;-87
2024/02/17 02:59:31;;;;;;;17.17;5.20;;;8.60;99.90;;;;;;4939786;29;20094;-87
2024/02/17 03:01:58;;;;;;;14.85;4.80;;;9.50;99.90;;;;;;4943541;29;20497;-87
2024/02/17 03:04:24;;;;;;;14.57;5.03;;;8.70;99.90;;;;;;4940196;29;20031;-87
2024/02/17 03:06:51;;;;;;;12.07;5.10;;;8.60;99.90;;;;;;4940124;29;20043;-87
2024/02/17 03:09:18;;;;;;;11.98;4.85;;;8.60;99.90;;;;;;4944279;29;20043;-87
2024/02/17 03:11:47;;;;;;;12.30;4.40;;;8.60;99.90;;;;;;4941579;29;20579;-87
2024/02/17 03:14:15;;;;;;;12.50;4.63;;;8.60;99.90;;;;;;4939776;29;20122;-87
2024/02/17 03:16:42;;;;;;;13.75;5.20;;;8.70;99.90;;;;;;4936591;29;20043;-88
2024/02/17 03:19:09;;;;;;;12.63;4.75;;;8.70;99.90;;;;;;4933217;29;20448;-87
2024/02/17 03:21:35;;;;;;;17.63;5.20;;;8.60;99.90;;;;;;4940095;29;20249;-87
2024/02/17 03:24:02;;;;;;;12.85;5.60;;;8.50;99.90;;;;;;4939230;29;20039;-87
2024/02/17 03:26:31;;;;;;;16.02;5.15;;;8.50;99.90;;;;;;4939657;29;20067;-87
2024/02/17 03:28:58;;;;;;;15.60;6.38;;;8.50;99.90;;;;;;4939589;29;20134;-87
2024/02/17 03:31:24;;;;;;;17.67;5.93;;;8.50;99.90;;;;;;4936070;29;20072;-87
2024/02/17 03:33:51;;;;;;;18.45;6.20;;;8.50;99.90;;;;;;4931536;29;20036;-88
2024/02/17 03:36:19;;;;;;;13.57;5.82;;;8.40;99.90;;;;;;4952929;29;20103;-87
2024/02/17 03:38:47;;;;;;;14.80;6.13;;;8.40;99.90;;;;;;4938779;29;20038;-87
2024/02/17 03:41:15;;;;;;;16.08;5.40;;;8.40;99.90;;;;;;4927959;29;20090;-88
2024/02/17 03:43:42;;;;;;;14.48;5.50;;;8.40;99.90;;;;;;4939532;29;20043;-88
2024/02/17 03:46:08;;;;;;;14.43;5.45;;;8.40;99.90;;;;;;4939435;29;20046;-87
2024/02/17 03:48:35;;;;;;;18.38;5.88;;;8.30;99.90;;;;;;4942736;29;20055;-88
2024/02/17 03:51:02;;;;;;;14.45;5.20;;;8.30;99.90;;;;;;4947552;29;20043;-88
2024/02/17 03:53:28;;;;;;;18.75;5.15;;;8.30;99.90;;;;;;4938946;29;20074;-87
2024/02/17 03:55:55;;;;;;;10.05;5.30;;;8.30;99.90;;;;;;4935724;29;20560;-88
2024/02/17 03:58:22;;;;;;;12.50;4.88;;;8.30;99.90;;;;;;4948577;29;20130;-87
2024/02/17 04:00:48;;;;;;;13.10;5.38;;;8.30;99.90;;;;;;4938253;29;20047;-87
2024/02/17 04:03:15;;;;;;;9.25;4.90;;;8.90;99.90;;;;;;4938614;29;20099;-87
2024/02/17 04:05:42;;;;;;;14.63;5.15;;;8.80;99.90;;;;;;4938158;29;20035;-87
2024/02/17 04:08:08;;;;;;;13.85;4.50;;;8.30;99.90;;;;;;4954669;29;20057;-87
2024/02/17 04:10:35;;;;;;;11.55;4.07;;;8.20;99.90;;;;;;4939386;29;20701;-87
2024/02/17 04:13:04;;;;;;;12.98;4.15;;;8.20;99.90;;;;;;4954598;29;20048;-88
2024/02/17 04:15:31;;;;;;;12.43;4.10;;;8.20;99.90;;;;;;4949977;29;20087;-87
2024/02/17 04:17:59;;;;;;;13.77;4.35;;;8.20;99.90;;;;;;4929403;29;20593;-87
2024/02/17 04:20:26;;;;;;;10.13;3.60;;;8.20;99.90;;;;;;4919947;29;20056;-87
2024/02/17 04:22:53;;;;;;;10.20;3.85;;;8.20;99.90;;;;;;4952634;29;20618;-87
2024/02/17 04:25:20;;;;;;;13.13;4.40;;;8.20;99.90;;;;;;4930877;29;20406;-87
2024/02/17 04:27:47;;;;;;;11.20;4.38;;;8.20;99.90;;;;;;4933798;29;20441;-87
2024/02/17 04:30:13;;;;;;;10.18;3.30;;;8.20;99.90;;;;;;4950613;29;20064;-87
2024/02/17 04:32:40;;;;;;;9.85;3.78;;;8.20;99.90;;;;;;4934253;29;20575;-87
2024/02/17 04:35:07;;;;;;;10.55;3.70;;;8.20;99.90;;;;;;4937778;29;20044;-87
2024/02/17 04:37:34;;;;;;;9.20;3.50;;;8.20;99.90;;;;;;4951154;29;20126;-87
2024/02/17 04:40:01;;;;;;;9.80;3.50;;;8.20;99.90;;;;;;4938340;29;20043;-87
2024/02/17 04:42:27;;;;;;;8.15;3.75;;;8.20;99.90;;;;;;4933486;29;20032;-87
2024/02/17 04:44:55;;;;;;;9.43;3.53;;;8.20;99.90;;;;;;4936180;29;20036;-87
2024/02/17 04:47:21;;;;;;;10.43;3.10;;;8.40;99.90;;;;;;4944845;29;20048;-87
2024/02/17 04:49:48;;;;;;;9.43;3.45;;;8.20;99.90;;;;;;4919594;29;20036;-87
2024/02/17 04:52:15;;;;;;;8.93;2.80;;;8.10;99.90;;;;;;4947792;29;20552;-88
2024/02/17 04:54:41;;;;;;;14.35;3.63;;;8.10;99.90;;;;;;4954397;29;20039;-88
2024/02/17 04:57:08;;;;;;;9.30;3.28;;;8.10;99.90;;;;;;4937117;29;20568;-87
2024/02/17 04:59:34;;;;;;;9.90;3.35;;;8.10;99.90;;;;;;4938103;29;20051;-87
2024/02/17 05:02:01;;;;;;;7.30;2.85;;;8.40;99.90;;;;;;4937220;29;20677;-87
2024/02/17 05:04:28;;;;;;;8.82;2.42;;;8.10;99.90;;;;;;4941883;29;20762;-87
2024/02/17 05:06:55;;;;;;;6.22;2.63;;;8.90;99.90;;;;;;4961436;29;20047;-87
2024/02/17 05:09:22;;;;;;;7.22;2.25;;;8.70;99.90;;;;;;4937709;29;20058;-87
2024/02/17 05:11:48;;;;;;;7.40;2.70;;;8.50;99.90;;;;;;4934192;29;20043;-87
2024/02/17 05:14:15;;;;;;;5.30;1.83;;;8.00;99.90;;;;;;4919367;29;20048;-87
2024/02/17 05:16:45;;;;;;;5.20;1.58;;;8.00;99.90;;;;;;4935212;29;20039;-87
2024/02/17 05:19:12;;;;;;;4.22;1.20;;;8.00;99.90;;;;;;4933772;29;20044;-87
2024/02/17 05:21:42;;;;;;;5.53;1.58;;;7.90;99.90;;;;;;4937698;29;20036;-87
2024/02/17 05:24:09;;;;;;;4.03;1.30;;;8.00;99.90;;;;;;4956515;29;20425;-88
2024/02/17 05:26:37;;;;;;;5.55;1.30;;;7.90;99.90;;;;;;4937558;29;20054;-88
2024/02/17 05:29:07;;;;;;;6.95;1.80;;;7.90;99.90;;;;;;4953243;29;20115;-88
2024/02/17 05:31:35;;;;;;;5.07;1.60;;;7.90;99.90;;;;;;4937416;29;20070;-87
2024/02/17 05:34:05;;;;;;;4.03;1.50;;;8.60;99.90;;;;;;4937302;29;20126;-87
2024/02/17 05:36:32;;;;;;;5.88;1.30;;;8.30;99.90;;;;;;4952997;29;20054;-87
2024/02/17 05:38:58;;;;;;;4.28;1.30;;;7.80;99.90;;;;;;4953225;29;20560;-87
2024/02/17 05:41:25;;;;;;;5.63;1.85;;;7.70;99.90;;;;;;4937458;29;20042;-87
2024/02/17 05:43:52;;;;;;;5.85;1.20;;;8.30;99.90;;;;;;4937487;29;20051;-87
2024/02/17 05:46:19;;;;;;;2.90;1.13;;;8.00;99.90;;;;;;4952768;29;20038;-88
2024/02/17 05:48:45;;;;;;;3.80;1.00;;;8.20;99.90;;;;;;4937079;29;20048;-88
2024/02/17 05:51:12;;;;;;;1.83;0.80;;;7.60;99.90;;;;;;4932166;29;20413;-87
2024/02/17 05:53:39;;;;;;;1.58;0.73;;;7.60;99.90;;;;;;4924747;29;20036;-87
2024/02/17 05:56:07;;;;;;;3.08;0.95;;;7.50;99.90;;;;;;4949278;29;20130;-88
2024/02/17 05:58:35;;;;;;;4.25;1.30;;;7.40;99.90;;;;;;4935694;29;20094;-87
2024/02/17 06:01:02;;;;;;;5.65;1.20;;;7.40;99.90;;;;;;4935795;29;20047;-87
2024/02/17 06:03:29;;;;;;;4.00;1.30;;;7.30;99.90;;;;;;4939465;29;20182;-87
2024/02/17 06:05:55;;;;;;;3.13;1.20;;;7.70;99.90;;;;;;4937278;29;20453;-87
2024/02/17 06:08:22;;;;;;;3.08;1.40;;;7.20;99.90;;;;;;4952629;29;20044;-87
2024/02/17 06:10:49;;;;;;;5.13;0.98;;;7.20;99.90;;;;;;4937358;29;20040;-87
2024/02/17 06:13:16;;;;;;;2.55;1.00;;;7.20;99.90;;;;;;4952649;29;20047;-87
2024/02/17 06:15:45;;;;;;;2.33;0.90;;;7.10;99.90;;;;;;4936697;29;20043;-87
2024/02/17 06:21:18;;;;;;;3.05;1.00;;;7.50;99.90;;;;;;4953923;29;20047;-87
2024/02/17 06:23:45;;;;;;;5.70;1.00;;;7.30;99.90;;;;;;4938515;29;20031;-87
2024/02/17 06:26:25;;;;;;;4.95;1.00;;;7.10;99.90;;;;;;4940789;29;20078;-87
2024/02/17 06:28:54;;;;;;;5.15;1.20;;;7.60;99.90;;;;;;4940596;29;20135;-87
2024/02/17 06:31:21;;;;;;;6.63;2.00;;;7.40;99.90;;;;;;4940595;29;20052;-87
2024/02/17 06:33:48;;;;;;;5.88;1.20;;;7.10;99.90;;;;;;4940955;29;20047;-87
2024/02/17 06:36:15;;;;;;;4.40;1.10;;;7.10;99.90;;;;;;4940742;29;20043;-87
2024/02/17 06:38:42;;;;;;;7.88;1.25;;;7.10;99.90;;;;;;4940033;29;20171;-86
2024/02/17 06:41:13;;;;;;;7.00;1.25;;;7.80;99.90;;;;;;4935234;29;20043;-87
2024/02/17 06:43:40;;;;;;;4.50;1.25;;;7.10;99.90;;;;;;4940280;29;20046;-87
2024/02/17 06:46:11;;;;;;;4.22;1.30;;;7.10;99.90;;;;;;4955234;29;20035;-87
2024/02/17 06:48:39;;;;;;;4.90;1.60;;;7.10;99.90;;;;;;4955486;29;20386;-88
2024/02/17 06:51:08;;;;;;;9.52;1.42;;;7.20;99.90;;;;;;4940186;29;20075;-87
2024/02/17 06:53:35;;;;;;;6.07;1.33;;;7.50;99.90;;;;;;4938611;29;20090;-87
2024/02/17 06:56:03;;;;;;;6.57;1.38;;;7.20;99.90;;;;;;4939902;29;20055;-87
2024/02/17 06:58:29;;;;;;;3.10;1.20;;;7.20;99.90;;;;;;4941917;29;20043;-87
2024/02/17 07:00:56;;;;;;;11.43;1.55;;;7.30;99.90;;;;;;4955153;29;20071;-87
2024/02/17 07:03:23;;;;;;;4.78;1.40;;;7.20;99.90;;;;;;4939170;29;20827;-87
2024/02/17 07:05:49;;;;;;;3.85;1.30;;;7.10;99.90;;;;;;4952316;29;20059;-87
2024/02/17 07:08:16;;;;;;;6.78;1.70;;;7.20;99.90;;;;;;4926666;29;20048;-87
2024/02/17 07:10:43;;;;;;;6.68;1.70;;;7.20;99.90;;;;;;4930915;29;20047;-88
2024/02/17 07:13:10;;;;;;;6.13;1.33;;;7.20;99.90;;;;;;4934654;29;20047;-88
2024/02/17 07:15:37;;;;;;;10.85;1.67;;;7.20;99.90;;;;;;4954968;29;20490;-89
2024/02/17 07:18:04;;;;;;;7.28;1.33;;;7.80;99.90;;;;;;4955317;29;20075;-88
2024/02/17 07:20:31;;;;;;;4.45;1.20;;;7.20;99.90;;;;;;4940632;29;20681;-89
2024/02/17 07:22:59;;;;;;;6.28;1.30;;;8.10;99.90;;;;;;4940128;29;20115;-88
2024/02/17 07:25:29;;;;;;;7.70;1.65;;;7.20;99.90;;;;;;4931833;29;20035;-88
2024/02/17 07:27:57;;;;;;;7.78;1.45;;;7.20;99.90;;;;;;4939504;29;20352;-88
2024/02/17 07:30:25;;;;;;;7.05;1.30;;;8.30;99.90;;;;;;4950875;29;20506;-88
2024/02/17 07:32:53;;;;;;;3.88;1.23;;;7.40;99.90;;;;;;4928136;29;20051;-88
2024/02/17 07:35:21;;;;;;;5.43;1.33;;;7.20;99.90;;;;;;4938705;29;20055;-88
2024/02/17 07:37:48;;;;;;;7.70;1.55;;;7.70;99.90;;;;;;4938971;29;20473;-88
2024/02/17 07:40:14;;;;;;;4.95;1.30;;;7.20;99.90;;;;;;4951810;29;20040;-88
2024/02/17 07:42:41;;;;;;;5.82;1.20;;;7.20;99.90;;;;;;4937227;29;20039;-88
2024/02/17 07:45:08;;;;;;;5.47;1.30;;;7.20;99.90;;;;;;4936080;29;20040;-88
2024/02/17 07:47:35;;;;;;;4.95;1.30;;;7.20;99.90;;;;;;4934592;29;20044;-88
2024/02/17 07:50:07;;;;;;;6.50;1.10;;;7.20;99.90;;;;;;4954975;29;20054;-87
2024/02/17 07:52:33;;;;;;;5.57;1.10;;;7.20;99.90;;;;;;4939193;29;20039;-88
2024/02/17 07:55:00;;;;;;;5.15;1.20;;;7.60;99.90;;;;;;4954682;29;20043;-88
2024/02/17 07:57:27;;;;;;;7.07;1.35;;;7.10;99.90;;;;;;4942325;29;20040;-88
2024/02/17 07:59:54;;;;;;;6.60;1.23;;;7.10;99.90;;;;;;4938784;29;20489;-87
2024/02/17 08:02:21;;;;;;;8.68;1.92;;;7.80;99.90;;;;;;4935292;29;20028;-88
2024/02/17 08:04:47;;;;;;;3.60;0.90;;;7.80;99.90;;;;;;4934616;29;20067;-88
2024/02/17 08:07:15;;;;;;;7.55;1.40;;;8.00;99.90;;;;;;4938902;29;20050;-88
2024/02/17 08:09:42;;;;;;;3.90;1.35;;;7.10;99.90;;;;;;4938261;29;20043;-88
2024/02/17 08:12:10;;;;;;;4.22;1.15;;;7.10;99.90;;;;;;4938082;29;20040;-88
2024/02/17 08:14:38;;;;;;;6.00;1.33;;;7.10;99.90;;;;;;4932864;29;20036;-88
2024/02/17 08:17:04;;;;;;;4.53;1.20;;;7.10;99.90;;;;;;4935630;29;20072;-88
2024/02/17 08:19:31;;;;;;;5.20;1.20;;;7.10;99.90;;;;;;4932549;29;20066;-88
2024/02/17 08:21:58;;;;;;;6.13;1.17;;;7.00;99.90;;;;;;4954362;29;20035;-88
2024/02/17 08:24:24;;;;;;;4.57;1.17;;;7.10;99.90;;;;;;4954129;29;20070;-88
2024/02/17 08:26:51;;;;;;;5.85;1.15;;;7.10;99.90;;;;;;4938552;29;20078;-87
2024/02/17 08:29:20;;;;;;;2.33;0.80;;;7.10;99.90;;;;;;4938151;29;20043;-88
2024/02/17 08:31:50;;;;;;;4.13;1.00;;;7.10;99.90;;;;;;4938073;29;20070;-88
2024/02/17 08:34:17;;;;;;;3.35;1.00;;;7.10;99.90;;;;;;4974559;29;20050;-89
2024/02/17 08:36:44;;;;;;;5.47;0.90;;;7.10;99.90;;;;;;4937694;29;20138;-89
2024/02/17 08:39:12;;;;;;;4.07;0.90;;;7.40;99.90;;;;;;4953950;29;20039;-89
2024/02/17 08:41:38;;;;;;;4.88;0.98;;;7.70;99.90;;;;;;4937950;29;20031;-85
2024/02/17 08:44:05;;;;;;;6.57;1.15;;;7.50;99.90;;;;;;4932415;29;20469;-87
2024/02/17 08:46:31;;;;;;;5.28;1.02;;;7.20;99.90;;;;;;4929911;29;20123;-87
2024/02/17 08:48:58;;;;;;;6.88;1.08;;;7.20;99.90;;;;;;4949067;29;20081;-86
2024/02/17 08:51:25;;;;;;;4.60;0.82;;;7.30;99.90;;;;;;4931612;29;20071;-86
2024/02/17 08:53:52;;;;;;;3.05;1.02;;;7.30;99.90;;;;;;4937377;29;20071;-86
2024/02/17 08:56:20;;;;;;;7.35;0.98;;;7.30;99.90;;;;;;4936851;29;20496;-86
2024/02/17 08:58:47;;;;;;;4.70;1.13;;;7.20;99.90;;;;;;4937062;29;20103;-86
2024/02/17 09:01:14;;;;;;;4.85;1.35;;;7.20;99.90;;;;;;4946380;29;20130;-86
2024/02/17 09:03:44;;;;;;;6.80;1.13;;;7.40;99.90;;;;;;4937094;29;20036;-86
2024/02/17 09:06:11;;;;;;;6.95;1.10;;;7.20;99.90;;;;;;4959810;29;20043;-86
2024/02/17 09:08:38;;;;;;;3.90;1.10;;;7.30;99.90;;;;;;4933632;29;20051;-85
2024/02/17 09:11:05;;;;;;;3.47;0.95;;;7.50;99.90;;;;;;4927110;29;20043;-85
2024/02/17 09:13:32;;;;;;;7.85;1.08;;;7.60;99.90;;;;;;4924545;29;20404;-86
2024/02/17 09:15:58;;;;;;;7.70;1.33;;;7.70;99.90;;;;;;4952630;29;20046;-86
2024/02/17 09:18:25;;;;;;;5.72;1.25;;;7.70;99.90;;;;;;4920515;29;20853;-85
2024/02/17 09:20:52;;;;;;;5.63;1.02;;;7.70;99.90;;;;;;4923900;29;20051;-86
2024/02/17 09:23:18;;;;;;;6.35;1.10;;;7.80;99.90;;;;;;4924738;29;20039;-85
2024/02/17 09:25:45;;;;;;;8.70;1.77;;;8.10;99.90;;;;;;4937019;29;20119;-85
2024/02/17 09:28:12;;;;;;;5.72;1.13;;;7.70;99.90;;;;;;4937144;29;20040;-85
2024/02/17 09:30:38;;;;;;;4.50;1.30;;;7.70;99.90;;;;;;4939048;29;20138;-85
2024/02/17 09:33:05;;;;;;;5.93;1.17;;;7.70;99.90;;;;;;4936542;29;20043;-86
2024/02/17 09:35:32;;;;;;;3.75;1.00;;;7.70;99.90;;;;;;4937414;29;20042;-86
2024/02/17 09:37:58;;;;;;;7.97;1.40;;;7.80;99.90;;;;;;4936913;29;20147;-85
2024/02/17 09:40:25;;;;;;;5.25;1.13;;;8.30;99.90;;;;;;4936519;29;20031;-86
2024/02/17 09:42:51;;;;;;;4.60;1.10;;;7.90;99.90;;;;;;4934194;29;20075;-85
2024/02/17 09:45:18;;;;;;;4.93;1.20;;;7.80;99.90;;;;;;4927020;29;21101;-86
2024/02/17 09:47:48;;;;;;;7.57;1.08;;;8.30;99.90;;;;;;4933825;29;20036;-86
2024/02/17 09:50:18;;;;;;;10.90;1.35;;;8.00;99.90;;;;;;4928032;29;20050;-86
2024/02/17 09:52:49;;;;;;;6.60;1.15;;;8.50;99.90;;;;;;4932833;29;20039;-85
2024/02/17 09:55:16;;;;;;;6.40;1.15;;;8.40;99.90;;;;;;4935428;29;20134;-86
2024/02/17 09:57:43;;;;;;;6.07;1.20;;;8.30;99.90;;;;;;4952778;29;20039;-86
2024/02/17 10:00:10;;;;;;;5.35;1.30;;;8.10;99.90;;;;;;4940407;29;20123;-86
2024/02/17 10:02:37;;;;;;;5.53;1.10;;;8.20;99.90;;;;;;4940501;29;20509;-86
2024/02/17 10:05:05;;;;;;;7.65;1.40;;;8.20;99.90;;;;;;4940272;29;20039;-86
2024/02/17 10:07:32;;;;;;;6.63;1.15;;;8.20;99.90;;;;;;4924685;29;20044;-85
2024/02/17 10:09:59;;;;;;;8.77;1.10;;;8.40;99.90;;;;;;4929781;29;20528;-85
2024/02/17 10:12:26;;;;;;;7.28;1.20;;;8.30;99.90;;;;;;4949125;29;20052;-86
2024/02/17 10:14:52;;;;;;;4.85;1.00;;;8.20;99.90;;;;;;4949424;29;20405;-85
2024/02/17 10:17:22;;;;;;;5.97;1.10;;;8.40;99.90;;;;;;4939606;29;20075;-86
2024/02/17 10:19:54;;;;;;;6.28;1.08;;;8.40;99.90;;;;;;4939909;29;20573;-86
2024/02/17 10:22:20;;;;;;;2.88;0.80;;;8.90;99.90;;;;;;4940086;29;20043;-86
2024/02/17 10:24:47;;;;;;;9.05;1.20;;;8.50;99.90;;;;;;4939934;29;20182;-86
2024/02/17 10:27:14;;;;;;;7.18;1.33;;;9.00;99.90;;;;;;4939929;29;20035;-86
2024/02/17 10:29:40;;;;;;;8.73;1.30;;;8.70;99.90;;;;;;4943184;29;20051;-85
2024/02/17 10:32:07;;;;;;;4.47;1.05;;;8.90;99.90;;;;;;4939683;29;20074;-85
2024/02/17 10:34:34;;;;;;;6.68;1.20;;;9.00;99.90;;;;;;4939881;29;20040;-85
2024/02/17 10:37:02;;;;;;;8.85;1.45;;;9.10;99.90;;;;;;4939738;29;20103;-85
2024/02/17 10:39:29;;;;;;;10.52;1.35;;;9.10;99.90;;;;;;4939141;29;20442;-86
2024/02/17 10:41:57;;;;;;;7.28;1.65;;;9.20;99.90;;;;;;4931669;29;20048;-86
2024/02/17 10:44:23;;;;;;;8.98;1.35;;;9.00;99.90;;;;;;4939673;29;20047;-86
2024/02/17 10:46:54;;;;;;;6.88;1.23;;;9.20;99.90;;;;;;4937682;29;20044;-86
2024/02/17 10:49:29;;;;;;;9.27;1.15;;;8.90;99.90;;;;;;4938839;29;20070;-86
2024/02/17 10:52:03;;;;;;;9.48;1.27;;;8.90;99.90;;;;;;4953874;29;20155;-86
2024/02/17 10:54:44;;;;;;;7.90;1.25;;;8.90;99.90;;;;;;4933664;29;20047;-86
2024/02/17 10:57:13;;;;;;;7.05;1.30;;;9.00;99.90;;;;;;4936688;29;20136;-87
2024/02/17 10:59:43;;;;;;;12.05;1.50;;;9.80;99.90;;;;;;4952256;29;20036;-87
2024/02/17 11:02:15;;;;;;;8.10;1.30;;;9.20;99.90;;;;;;4935058;29;20040;-86
2024/02/17 11:04:43;;;;;;;6.95;1.38;;;9.20;99.90;;;;;;4922108;29;20091;-86
2024/02/17 11:07:11;;;;;;;8.23;1.17;;;9.30;99.90;;;;;;4954008;29;20050;-86
2024/02/17 11:09:37;;;;;;;10.18;1.55;;;9.40;99.90;;;;;;4953269;29;20039;-86
2024/02/17 11:12:26;;;;;;;9.30;1.25;;;9.40;99.90;;;;;;4938483;29;20506;-86
2024/02/17 11:14:59;;;;;;;6.47;1.40;;;9.30;99.90;;;;;;4952890;29;20084;-86
2024/02/17 11:17:34;;;;;;;8.80;1.00;;;9.40;99.90;;;;;;4938633;29;20103;-86
2024/02/17 11:20:06;;;;;;;11.93;1.30;;;9.60;99.90;;;;;;4938955;29;20655;-86
2024/02/17 11:22:34;;;;;;;6.25;1.20;;;9.10;99.90;;;;;;4940216;29;20046;-86
2024/02/17 11:25:05;;;;;;;7.53;1.20;;;9.00;99.90;;;;;;4937437;29;20047;-86
2024/02/17 11:27:33;;;;;;;6.07;1.35;;;8.90;99.90;;;;;;4938995;29;20046;-87
2024/02/17 11:30:01;;;;;;;7.03;1.13;;;8.90;99.90;;;;;;4938288;29;20047;-85
2024/02/17 11:32:28;;;;;;;6.68;1.17;;;9.20;99.90;;;;;;4938173;29;20079;-86
2024/02/17 11:34:55;;;;;;;6.20;1.15;;;9.20;99.90;;;;;;4935214;29;20082;-85
2024/02/17 11:37:23;;;;;;;4.90;1.23;;;8.90;99.90;;;;;;4930752;29;20044;-86
2024/02/17 11:39:51;;;;;;;7.00;1.40;;;8.80;99.90;;;;;;4937206;29;20634;-86
2024/02/17 11:42:18;;;;;;;8.10;1.67;;;9.10;99.90;;;;;;4943949;29;20078;-86
2024/02/17 11:44:47;;;;;;;7.65;1.45;;;8.70;99.90;;;;;;4936503;29;20032;-87
2024/02/17 11:47:15;;;;;;;6.32;1.20;;;8.70;99.90;;;;;;4957160;29;20094;-86
2024/02/17 11:49:42;;;;;;;11.55;1.80;;;8.60;99.90;;;;;;4938914;29;20114;-87
2024/02/17 11:52:09;;;;;;;3.92;1.23;;;8.60;99.90;;;;;;4938752;29;20454;-87
2024/02/17 11:54:40;;;;;;;8.57;1.13;;;8.60;99.90;;;;;;4937606;29;20082;-86
2024/02/17 11:57:09;;;;;;;4.22;1.02;;;8.60;99.90;;;;;;4954410;29;20043;-87
2024/02/17 11:59:36;;;;;;;6.70;0.98;;;8.60;99.90;;;;;;4954290;29;20123;-86
2024/02/17 12:02:03;;;;;;;9.07;2.13;;;8.60;99.90;;;;;;4936752;29;20123;-86
2024/02/17 12:04:30;;;;;;;9.15;1.35;;;8.60;99.90;;;;;;4928747;29;20405;-86
2024/02/17 12:06:56;;;;;;;4.80;1.17;;;8.90;99.90;;;;;;4953702;29;20027;-85
2024/02/17 12:09:23;;;;;;;6.53;1.10;;;8.60;99.90;;;;;;4931496;29;20040;-85
2024/02/17 12:11:50;;;;;;;8.50;1.40;;;8.70;99.90;;;;;;4953643;29;20036;-85
2024/02/17 12:14:18;;;;;;;9.65;1.35;;;8.80;99.90;;;;;;4925429;29;20436;-85
2024/02/17 12:16:45;;;;;;;11.35;1.42;;;8.80;99.90;;;;;;4935404;29;20048;-85
2024/02/17 12:19:11;;;;;;;5.45;1.08;;;9.00;99.90;;;;;;4937248;29;20111;-85
2024/02/17 12:21:39;;;;;;;12.63;1.70;;;9.20;99.90;;;;;;4937434;29;20043;-85
2024/02/17 12:24:07;;;;;;;8.25;1.25;;;9.70;99.90;;;;;;4951420;29;20039;-85
2024/02/17 12:26:35;;;;;;;6.18;1.30;;;9.40;99.90;;;;;;4937472;29;20040;-85
2024/02/17 12:29:03;;;;;;;9.77;1.10;;;9.50;99.90;;;;;;4937146;29;20480;-85
2024/02/17 12:31:31;;;;;;;7.55;1.20;;;9.70;99.90;;;;;;4931684;29;20176;-85
2024/02/17 12:33:58;;;;;;;7.18;1.85;;;9.80;99.90;;;;;;4953256;29;20050;-85
2024/02/17 12:36:25;;;;;;;4.55;1.30;;;9.80;99.90;;;;;;4953466;29;20091;-85
2024/02/17 12:38:59;;;;;;;7.57;1.20;;;9.80;99.90;;;;;;4952809;29;20047;-85
2024/02/17 12:41:26;;;;;;;6.90;1.23;;;9.80;99.90;;;;;;4932985;29;20039;-85
2024/02/17 12:43:54;;;;;;;5.25;0.98;;;9.80;99.90;;;;;;4932397;29;20075;-86
2024/02/17 12:46:23;;;;;;;5.43;1.20;;;9.70;99.90;;;;;;4937532;29;20746;-86
2024/02/17 12:48:52;;;;;;;9.45;1.50;;;9.70;99.90;;;;;;4935892;29;20410;-85
2024/02/17 12:51:23;;;;;;;4.85;1.20;;;9.70;99.90;;;;;;4937499;29;20409;-85
2024/02/17 12:53:51;;;;;;;5.68;1.13;;;10.00;99.90;;;;;;4952682;29;20075;-86
2024/02/17 12:56:17;;;;;;;8.82;1.42;;;9.80;99.90;;;;;;4937051;29;20071;-85